Time;durP1;ratioP1;P1;durP2;ratioP2;P2;SDS_P1;SDS_P2;PMS_P1;PMS_P2;Temp;Humidity;BMP_temperature;BMP_pressure;BME280_temperature;BME280_humidity;BME280_pressure;Samples;Min_cycle;Max_cycle;Signal;HPM_P1;HPM_P2
2023/03/05 00:01:21;;;;;;;4.75;2.40;;;;;;;;;;5031217;28;20227;-69
2023/03/05 00:03:49;;;;;;;4.78;1.85;;;;;;;;;;5044978;28;20258;-69
2023/03/05 00:06:16;;;;;;;2.55;1.80;;;;;;;;;;5034317;28;20203;-69
2023/03/05 00:08:45;;;;;;;5.50;2.25;;;;;;;;;;5034644;28;20246;-69
2023/03/05 00:11:12;;;;;;;15.18;2.65;;;;;;;;;;5043235;28;20201;-69
2023/03/05 00:13:40;;;;;;;5.63;1.90;;;;;;;;;;5054576;28;20223;-69
2023/03/05 00:16:08;;;;;;;3.70;1.73;;;;;;;;;;5047464;28;20269;-69
2023/03/05 00:18:35;;;;;;;7.30;2.20;;;;;;;;;;5034941;28;20551;-69
2023/03/05 00:21:02;;;;;;;10.02;2.20;;;;;;;;;;5034145;28;20195;-69
2023/03/05 00:23:29;;;;;;;7.47;1.83;;;;;;;;;;5053471;28;20250;-69
2023/03/05 00:26:01;;;;;;;5.78;2.03;;;;;;;;;;5048771;28;20207;-69
2023/03/05 00:28:28;;;;;;;5.90;1.70;;;;;;;;;;5039437;28;20222;-69
2023/03/05 00:30:55;;;;;;;4.43;1.83;;;;;;;;;;5054628;28;20202;-69
2023/03/05 00:33:22;;;;;;;13.73;3.50;;;;;;;;;;5053843;28;20230;-69
2023/03/05 00:35:49;;;;;;;9.20;2.45;;;;;;;;;;5053941;28;20198;-69
2023/03/05 00:38:16;;;;;;;8.32;3.20;;;;;;;;;;5053997;28;20198;-69
2023/03/05 00:40:43;;;;;;;8.68;2.10;;;;;;;;;;5054599;28;20206;-69
2023/03/05 00:43:12;;;;;;;6.97;2.10;;;;;;;;;;5051613;28;20233;-69
2023/03/05 00:45:39;;;;;;;4.57;1.95;;;;;;;;;;5054301;28;20199;-69
2023/03/05 00:48:06;;;;;;;4.28;2.10;;;;;;;;;;5046901;28;20196;-69
2023/03/05 00:50:33;;;;;;;4.53;1.75;;;;;;;;;;5034308;28;20200;-69
2023/03/05 00:53:00;;;;;;;4.75;2.05;;;;;;;;;;5033750;28;20219;-69
2023/03/05 00:55:27;;;;;;;5.00;2.00;;;;;;;;;;5034207;28;20199;-69
2023/03/05 00:57:54;;;;;;;8.82;1.92;;;;;;;;;;5033091;28;20195;-69
2023/03/05 01:00:23;;;;;;;6.05;2.10;;;;;;;;;;5034212;28;20203;-69
2023/03/05 01:02:50;;;;;;;7.13;1.98;;;;;;;;;;5033559;28;20223;-69
2023/03/05 01:05:17;;;;;;;8.70;2.75;;;;;;;;;;5032981;28;20279;-69
2023/03/05 01:07:44;;;;;;;7.00;2.10;;;;;;;;;;5033964;28;20214;-69
2023/03/05 01:10:12;;;;;;;2.53;2.25;;;;;;;;;;5048500;28;20225;-69
2023/03/05 01:12:39;;;;;;;8.13;1.90;;;;;;;;;;5052723;28;20219;-70
2023/03/05 01:15:06;;;;;;;5.03;1.80;;;;;;;;;;5051031;28;20571;-69
2023/03/05 01:17:36;;;;;;;5.78;1.90;;;;;;;;;;5034426;28;20281;-69
2023/03/05 01:20:04;;;;;;;5.57;1.90;;;;;;;;;;5044562;28;20199;-69
2023/03/05 01:22:31;;;;;;;3.58;1.73;;;;;;;;;;5033439;28;20226;-69
2023/03/05 01:24:58;;;;;;;4.82;2.00;;;;;;;;;;5033510;28;20229;-69
2023/03/05 01:27:25;;;;;;;4.75;1.52;;;;;;;;;;5033106;28;20222;-69
2023/03/05 01:29:52;;;;;;;3.85;1.80;;;;;;;;;;5034828;28;20214;-69
2023/03/05 01:32:19;;;;;;;4.35;1.80;;;;;;;;;;5033816;28;20248;-69
2023/03/05 01:34:48;;;;;;;4.82;1.70;;;;;;;;;;5033636;28;20200;-69
2023/03/05 01:37:15;;;;;;;4.43;1.95;;;;;;;;;;5033369;28;20203;-69
2023/03/05 01:39:42;;;;;;;6.35;1.70;;;;;;;;;;5032635;28;20533;-69
2023/03/05 01:42:09;;;;;;;4.13;1.80;;;;;;;;;;5032999;28;20584;-69
2023/03/05 01:44:36;;;;;;;4.50;2.00;;;;;;;;;;5034947;28;20209;-69
2023/03/05 01:47:03;;;;;;;2.85;1.50;;;;;;;;;;5050941;28;20206;-69
2023/03/05 01:49:31;;;;;;;4.20;2.10;;;;;;;;;;5053034;28;20231;-69
2023/03/05 01:52:02;;;;;;;7.88;2.05;;;;;;;;;;5050368;28;20214;-69
2023/03/05 01:54:33;;;;;;;9.38;1.55;;;;;;;;;;5032912;28;20206;-69
2023/03/05 01:57:02;;;;;;;4.30;1.70;;;;;;;;;;5033115;28;20655;-69
2023/03/05 01:59:29;;;;;;;3.08;2.00;;;;;;;;;;5048011;28;20206;-69
2023/03/05 02:01:57;;;;;;;5.25;1.40;;;;;;;;;;5049848;28;20215;-69
2023/03/05 02:04:28;;;;;;;5.47;2.42;;;;;;;;;;5050992;28;20213;-69
2023/03/05 02:06:55;;;;;;;11.73;2.05;;;;;;;;;;5052838;28;20221;-69
2023/03/05 02:09:23;;;;;;;8.50;2.08;;;;;;;;;;5049707;28;20257;-69
2023/03/05 02:11:50;;;;;;;6.47;2.00;;;;;;;;;;5031914;28;20230;-69
2023/03/05 02:14:19;;;;;;;10.80;2.00;;;;;;;;;;5032024;28;20210;-69
2023/03/05 02:16:46;;;;;;;2.85;1.60;;;;;;;;;;5043286;28;20210;-69
2023/03/05 02:19:13;;;;;;;10.07;2.25;;;;;;;;;;5052082;28;20190;-69
2023/03/05 02:21:43;;;;;;;6.35;2.45;;;;;;;;;;5051670;28;20203;-69
2023/03/05 02:24:12;;;;;;;4.63;1.50;;;;;;;;;;5050335;28;20213;-69
2023/03/05 02:26:39;;;;;;;4.15;2.47;;;;;;;;;;5051450;28;20261;-70
2023/03/05 02:29:08;;;;;;;6.63;2.20;;;;;;;;;;5051806;28;20226;-69
2023/03/05 02:31:37;;;;;;;9.82;1.63;;;;;;;;;;5049512;28;20194;-69
2023/03/05 02:34:05;;;;;;;4.63;1.60;;;;;;;;;;5051696;28;20277;-70
2023/03/05 02:36:32;;;;;;;6.25;2.03;;;;;;;;;;5050013;28;20191;-69
2023/03/05 02:39:00;;;;;;;4.13;1.88;;;;;;;;;;5038523;28;20199;-69
2023/03/05 02:41:27;;;;;;;5.35;1.92;;;;;;;;;;5031592;28;20202;-69
2023/03/05 02:43:54;;;;;;;7.57;2.10;;;;;;;;;;5033483;28;21186;-70
2023/03/05 02:46:22;;;;;;;10.88;2.10;;;;;;;;;;5052017;28;20591;-69
2023/03/05 02:48:49;;;;;;;4.00;1.67;;;;;;;;;;5051759;28;20214;-70
2023/03/05 02:51:16;;;;;;;7.60;1.92;;;;;;;;;;5049683;28;20244;-69
2023/03/05 02:53:44;;;;;;;1.70;1.25;;;;;;;;;;5051760;28;20222;-69
2023/03/05 02:56:12;;;;;;;2.17;1.30;;;;;;;;;;5048785;28;20202;-68
2023/03/05 02:58:39;;;;;;;2.83;1.60;;;;;;;;;;5051878;28;20202;-69
2023/03/05 03:01:06;;;;;;;2.10;1.38;;;;;;;;;;5048868;28;20214;-69
2023/03/05 03:03:34;;;;;;;4.13;1.90;;;;;;;;;;5051386;28;20226;-69
2023/03/05 03:06:01;;;;;;;4.40;1.67;;;;;;;;;;5051784;28;20202;-69
2023/03/05 03:08:28;;;;;;;4.25;1.75;;;;;;;;;;5051744;28;20195;-69
2023/03/05 03:10:55;;;;;;;2.88;1.35;;;;;;;;;;5051689;28;20225;-69
2023/03/05 03:13:24;;;;;;;2.67;1.55;;;;;;;;;;5051334;28;20288;-69
2023/03/05 03:15:51;;;;;;;2.22;1.40;;;;;;;;;;5049689;28;20218;-69
2023/03/05 03:18:18;;;;;;;3.38;1.77;;;;;;;;;;5051470;28;20206;-69
2023/03/05 03:20:46;;;;;;;6.35;1.30;;;;;;;;;;5051633;28;20191;-69
2023/03/05 03:23:13;;;;;;;3.53;1.30;;;;;;;;;;5049630;28;20223;-69
2023/03/05 03:25:40;;;;;;;2.10;1.30;;;;;;;;;;5051142;28;20206;-69
2023/03/05 03:28:07;;;;;;;4.75;1.73;;;;;;;;;;5049038;28;20194;-69
2023/03/05 03:30:35;;;;;;;7.80;1.40;;;;;;;;;;5051457;28;20215;-69
2023/03/05 03:33:02;;;;;;;6.22;1.80;;;;;;;;;;5048638;28;20317;-69
2023/03/05 03:35:30;;;;;;;4.82;1.58;;;;;;;;;;5048133;28;20417;-69
2023/03/05 03:37:57;;;;;;;4.88;1.48;;;;;;;;;;5049269;28;20201;-69
2023/03/05 03:40:24;;;;;;;6.00;1.42;;;;;;;;;;5050471;28;20191;-69
2023/03/05 03:42:52;;;;;;;7.30;1.50;;;;;;;;;;5055024;28;20587;-69
2023/03/05 03:45:20;;;;;;;2.30;1.30;;;;;;;;;;5055407;28;20198;-69
2023/03/05 03:47:50;;;;;;;5.38;1.52;;;;;;;;;;5044005;28;20195;-69
2023/03/05 03:50:17;;;;;;;8.75;2.20;;;;;;;;;;5034394;28;20285;-69
2023/03/05 03:52:44;;;;;;;6.78;1.75;;;;;;;;;;5049882;28;20218;-69
2023/03/05 03:55:12;;;;;;;11.00;1.77;;;;;;;;;;5054851;28;20217;-69
2023/03/05 03:57:39;;;;;;;6.38;2.00;;;;;;;;;;5054489;28;20198;-69
2023/03/05 04:00:07;;;;;;;2.58;1.27;;;;;;;;;;5054842;28;20197;-69
2023/03/05 04:02:34;;;;;;;5.55;2.50;;;;;;;;;;5054849;28;20221;-69
2023/03/05 04:05:03;;;;;;;5.93;1.90;;;;;;;;;;5055485;28;20207;-69
2023/03/05 04:07:30;;;;;;;5.25;2.20;;;;;;;;;;5054945;28;20199;-70
2023/03/05 04:09:57;;;;;;;4.93;1.75;;;;;;;;;;5043363;28;20211;-70
2023/03/05 04:12:24;;;;;;;5.82;2.00;;;;;;;;;;5034851;28;20722;-69
2023/03/05 04:14:51;;;;;;;4.78;2.40;;;;;;;;;;5033972;28;20523;-69
2023/03/05 04:17:18;;;;;;;2.65;1.42;;;;;;;;;;5034963;28;20199;-69
2023/03/05 04:19:45;;;;;;;4.75;2.40;;;;;;;;;;5034938;28;20666;-70
2023/03/05 04:22:15;;;;;;;8.70;1.80;;;;;;;;;;5034357;28;20242;-69
2023/03/05 04:24:43;;;;;;;4.50;1.85;;;;;;;;;;5034166;28;20223;-69
2023/03/05 04:27:10;;;;;;;4.18;1.77;;;;;;;;;;5046980;28;20660;-70
2023/03/05 04:29:38;;;;;;;2.63;2.17;;;;;;;;;;5054818;28;20224;-69
2023/03/05 04:32:05;;;;;;;7.32;1.90;;;;;;;;;;5053684;28;20230;-69
2023/03/05 04:34:32;;;;;;;4.93;2.17;;;;;;;;;;5054082;28;20194;-70
2023/03/05 04:36:59;;;;;;;3.17;1.90;;;;;;;;;;5054291;28;20664;-69
2023/03/05 04:39:28;;;;;;;5.78;2.35;;;;;;;;;;5054574;28;20567;-69
2023/03/05 04:41:55;;;;;;;4.32;2.05;;;;;;;;;;5051659;28;20218;-69
2023/03/05 04:44:24;;;;;;;6.30;1.85;;;;;;;;;;5054301;28;20199;-69
2023/03/05 04:46:51;;;;;;;4.85;2.05;;;;;;;;;;5047055;28;20731;-69
2023/03/05 04:49:18;;;;;;;5.43;2.10;;;;;;;;;;5039260;28;20681;-69
2023/03/05 04:51:45;;;;;;;6.18;2.17;;;;;;;;;;5032639;28;20564;-69
2023/03/05 04:54:13;;;;;;;10.00;1.70;;;;;;;;;;5032684;28;20222;-69
2023/03/05 04:56:41;;;;;;;6.90;1.88;;;;;;;;;;5034031;28;20207;-70
2023/03/05 04:59:08;;;;;;;6.18;2.05;;;;;;;;;;5032102;28;20210;-69
2023/03/05 05:01:36;;;;;;;6.60;2.15;;;;;;;;;;5033097;28;20652;-69
2023/03/05 05:04:03;;;;;;;5.38;2.97;;;;;;;;;;5037454;28;20290;-69
2023/03/05 05:06:30;;;;;;;11.90;1.90;;;;;;;;;;5045697;28;20200;-69
2023/03/05 05:08:57;;;;;;;7.22;2.20;;;;;;;;;;5033959;28;20235;-69
2023/03/05 05:11:24;;;;;;;2.22;2.03;;;;;;;;;;5033832;28;20219;-69
2023/03/05 05:13:52;;;;;;;3.25;1.52;;;;;;;;;;5051663;28;20222;-69
2023/03/05 05:16:19;;;;;;;5.82;2.03;;;;;;;;;;5053850;28;20210;-69
2023/03/05 05:18:46;;;;;;;11.57;2.85;;;;;;;;;;5051439;28;20209;-69
2023/03/05 05:21:14;;;;;;;5.18;2.03;;;;;;;;;;5053088;28;20594;-69
2023/03/05 05:23:41;;;;;;;4.32;2.15;;;;;;;;;;5053046;28;20219;-69
2023/03/05 05:26:13;;;;;;;8.65;2.90;;;;;;;;;;5053175;28;20205;-69
2023/03/05 05:28:41;;;;;;;5.38;2.03;;;;;;;;;;5053400;28;20297;-68
2023/03/05 05:31:11;;;;;;;10.07;2.17;;;;;;;;;;5039659;28;20211;-69
2023/03/05 05:33:38;;;;;;;2.45;1.35;;;;;;;;;;5060903;22;20595;-69
2023/03/05 05:36:05;;;;;;;7.75;2.25;;;;;;;;;;5052281;28;20206;-69
2023/03/05 05:38:33;;;;;;;2.10;1.73;;;;;;;;;;5052555;28;20195;-69
2023/03/05 05:41:03;;;;;;;2.58;1.30;;;;;;;;;;5052922;28;20191;-69
2023/03/05 05:43:31;;;;;;;8.13;1.45;;;;;;;;;;5053023;28;20253;-69
2023/03/05 05:45:59;;;;;;;3.10;1.92;;;;;;;;;;5051190;28;20203;-69
2023/03/05 05:48:28;;;;;;;6.15;1.90;;;;;;;;;;5047394;28;20197;-69
2023/03/05 05:50:55;;;;;;;10.55;2.15;;;;;;;;;;5033011;28;20215;-69
2023/03/05 05:53:22;;;;;;;4.50;1.58;;;;;;;;;;5037132;28;20234;-69
2023/03/05 05:55:49;;;;;;;6.07;1.85;;;;;;;;;;5053123;28;20195;-69
2023/03/05 05:58:16;;;;;;;7.90;1.92;;;;;;;;;;5052825;28;20294;-69
2023/03/05 06:00:43;;;;;;;5.00;2.33;;;;;;;;;;5037114;28;20211;-69
2023/03/05 06:03:10;;;;;;;2.25;2.05;;;;;;;;;;5031544;28;20226;-69
2023/03/05 06:05:39;;;;;;;2.83;2.10;;;;;;;;;;5033872;28;20204;-69
2023/03/05 06:08:06;;;;;;;2.03;1.70;;;;;;;;;;5052838;28;20199;-69
2023/03/05 06:10:33;;;;;;;2.70;1.85;;;;;;;;;;5052530;28;20215;-69
2023/03/05 06:13:00;;;;;;;4.45;1.83;;;;;;;;;;5034104;28;20610;-68
2023/03/05 06:15:27;;;;;;;5.07;2.13;;;;;;;;;;5042142;28;20198;-68
2023/03/05 06:17:54;;;;;;;8.63;2.65;;;;;;;;;;5040295;28;20204;-69
2023/03/05 06:20:22;;;;;;;3.60;1.75;;;;;;;;;;5045676;28;20230;-70
2023/03/05 06:22:50;;;;;;;4.90;2.08;;;;;;;;;;5051900;28;20272;-70
2023/03/05 06:25:17;;;;;;;10.05;2.50;;;;;;;;;;5051764;28;20205;-69
2023/03/05 06:27:44;;;;;;;3.63;1.60;;;;;;;;;;5052012;28;20202;-69
2023/03/05 06:30:12;;;;;;;8.15;2.60;;;;;;;;;;5052415;28;20191;-69
2023/03/05 06:32:39;;;;;;;11.57;2.72;;;;;;;;;;5051750;28;20235;-69
2023/03/05 06:35:07;;;;;;;5.90;2.00;;;;;;;;;;5049063;28;20203;-69
2023/03/05 06:37:35;;;;;;;5.30;2.70;;;;;;;;;;5031971;28;20203;-69
2023/03/05 06:40:04;;;;;;;14.65;3.65;;;;;;;;;;5048321;28;20590;-71
2023/03/05 06:42:31;;;;;;;11.30;3.42;;;;;;;;;;5051200;28;20226;-70
2023/03/05 06:44:58;;;;;;;12.07;4.43;;;;;;;;;;5051594;28;20206;-70
2023/03/05 06:47:25;;;;;;;4.57;2.90;;;;;;;;;;5035751;28;20207;-70
2023/03/05 06:49:52;;;;;;;6.80;4.15;;;;;;;;;;5043839;28;20203;-70
2023/03/05 06:52:19;;;;;;;8.35;3.65;;;;;;;;;;5037663;28;20221;-70
2023/03/05 06:54:46;;;;;;;9.02;3.42;;;;;;;;;;5051826;28;20202;-70
2023/03/05 06:57:15;;;;;;;6.30;2.75;;;;;;;;;;5047159;28;20205;-70
2023/03/05 06:59:42;;;;;;;7.10;2.97;;;;;;;;;;5051681;28;20198;-70
2023/03/05 07:02:10;;;;;;;3.45;2.53;;;;;;;;;;5049831;28;20222;-70
2023/03/05 07:04:37;;;;;;;4.35;2.85;;;;;;;;;;5049989;28;20202;-70
2023/03/05 07:07:04;;;;;;;7.15;2.45;;;;;;;;;;5048744;28;20199;-70
2023/03/05 07:09:31;;;;;;;4.25;2.50;;;;;;;;;;5048597;28;20194;-70
2023/03/05 07:11:58;;;;;;;5.53;2.70;;;;;;;;;;5047990;28;20194;-72
2023/03/05 07:14:27;;;;;;;8.55;2.30;;;;;;;;;;5047529;28;20194;-70
2023/03/05 07:16:54;;;;;;;5.68;2.47;;;;;;;;;;5054561;28;20210;-68
2023/03/05 07:19:21;;;;;;;3.47;2.50;;;;;;;;;;5043193;28;20215;-70
2023/03/05 07:21:48;;;;;;;6.78;2.60;;;;;;;;;;5051161;28;20233;-70
2023/03/05 07:24:15;;;;;;;6.75;2.63;;;;;;;;;;5057196;28;20214;-70
2023/03/05 07:26:42;;;;;;;7.28;2.65;;;;;;;;;;5040187;28;20571;-70
2023/03/05 07:29:10;;;;;;;4.10;2.25;;;;;;;;;;5050151;28;20204;-70
2023/03/05 07:31:38;;;;;;;7.10;3.22;;;;;;;;;;5054657;28;20194;-70
2023/03/05 07:34:05;;;;;;;6.60;2.53;;;;;;;;;;5052881;28;20226;-70
2023/03/05 07:36:33;;;;;;;6.72;2.50;;;;;;;;;;5038017;28;20286;-70
2023/03/05 07:39:00;;;;;;;9.15;3.05;;;;;;;;;;5051868;28;20194;-70
2023/03/05 07:41:27;;;;;;;7.57;2.90;;;;;;;;;;5057353;28;20584;-70
2023/03/05 07:43:55;;;;;;;12.57;3.15;;;;;;;;;;5078163;28;20221;-70
2023/03/05 07:46:22;;;;;;;6.47;2.85;;;;;;;;;;5072299;28;20576;-71
2023/03/05 07:48:51;;;;;;;5.68;2.70;;;;;;;;;;5057508;28;20203;-70
2023/03/05 07:51:19;;;;;;;3.45;2.80;;;;;;;;;;5057802;28;20194;-70
2023/03/05 07:53:46;;;;;;;10.30;4.00;;;;;;;;;;5053895;28;20292;-70
2023/03/05 07:56:14;;;;;;;4.53;2.33;;;;;;;;;;5038364;28;20224;-72
2023/03/05 07:58:41;;;;;;;9.35;2.80;;;;;;;;;;5041929;28;20237;-71
2023/03/05 08:01:13;;;;;;;6.43;2.65;;;;;;;;;;5055823;28;20218;-70
2023/03/05 08:03:40;;;;;;;5.15;2.28;;;;;;;;;;5055124;28;20222;-70
2023/03/05 08:06:09;;;;;;;6.75;2.97;;;;;;;;;;5057281;28;20202;-71
2023/03/05 08:08:36;;;;;;;10.30;2.72;;;;;;;;;;5049735;28;20195;-71
2023/03/05 08:11:04;;;;;;;9.70;3.70;;;;;;;;;;5046397;28;20548;-70
2023/03/05 08:13:31;;;;;;;5.35;2.90;;;;;;;;;;5060725;28;20245;-70
2023/03/05 08:15:58;;;;;;;3.20;2.20;;;;;;;;;;5053489;28;20206;-70
2023/03/05 08:18:25;;;;;;;10.50;4.13;;;;;;;;;;5055847;28;20199;-70
2023/03/05 08:20:52;;;;;;;7.47;2.80;;;;;;;;;;5055243;28;20217;-70
2023/03/05 08:23:20;;;;;;;3.78;2.63;;;;;;;;;;5046998;28;20240;-70
2023/03/05 08:25:48;;;;;;;9.10;3.50;;;;;;;;;;5048026;28;20222;-70
2023/03/05 08:28:15;;;;;;;9.35;2.45;;;;;;;;;;5048298;28;20207;-70
2023/03/05 08:30:42;;;;;;;9.55;3.05;;;;;;;;;;5051975;28;20210;-70
2023/03/05 08:33:09;;;;;;;6.43;2.67;;;;;;;;;;5048853;28;20223;-69
2023/03/05 08:35:36;;;;;;;5.85;2.83;;;;;;;;;;5050800;28;20203;-70
2023/03/05 08:38:03;;;;;;;3.75;2.42;;;;;;;;;;5052693;28;20205;-70
2023/03/05 08:40:32;;;;;;;4.60;2.25;;;;;;;;;;5053500;28;20195;-70
2023/03/05 08:42:59;;;;;;;7.07;2.90;;;;;;;;;;5043439;28;20226;-70
2023/03/05 08:45:26;;;;;;;12.70;4.28;;;;;;;;;;5038663;28;20190;-70
2023/03/05 08:47:54;;;;;;;12.65;3.85;;;;;;;;;;5051125;28;20203;-70
2023/03/05 08:50:22;;;;;;;5.80;2.95;;;;;;;;;;5044336;28;20202;-70
2023/03/05 08:52:49;;;;;;;9.23;2.60;;;;;;;;;;5038679;28;20215;-70
2023/03/05 08:55:16;;;;;;;6.50;2.90;;;;;;;;;;5050824;28;20217;-70
2023/03/05 08:57:44;;;;;;;8.02;3.80;;;;;;;;;;5044447;28;20203;-70
2023/03/05 09:00:12;;;;;;;12.30;4.15;;;;;;;;;;5046204;28;20202;-70
2023/03/05 09:02:39;;;;;;;8.90;4.55;;;;;;;;;;5040312;28;20239;-70
2023/03/05 09:05:07;;;;;;;7.95;5.88;;;;;;;;;;5052246;28;20207;-69
2023/03/05 09:07:34;;;;;;;6.45;5.25;;;;;;;;;;5052436;28;20572;-70
2023/03/05 09:10:01;;;;;;;6.75;4.63;;;;;;;;;;5052437;28;20199;-70
2023/03/05 09:12:28;;;;;;;10.75;4.47;;;;;;;;;;5049921;28;20215;-71
2023/03/05 09:14:57;;;;;;;6.90;4.00;;;;;;;;;;5051479;28;20199;-70
2023/03/05 09:17:24;;;;;;;7.90;3.85;;;;;;;;;;5050189;28;20213;-70
2023/03/05 09:19:51;;;;;;;8.18;3.90;;;;;;;;;;5053426;28;20202;-70
2023/03/05 09:22:18;;;;;;;11.43;3.92;;;;;;;;;;5052591;28;20226;-70
2023/03/05 09:24:45;;;;;;;12.13;4.05;;;;;;;;;;5052406;28;20668;-70
2023/03/05 09:27:12;;;;;;;9.70;3.95;;;;;;;;;;5052923;28;20656;-71
2023/03/05 09:29:39;;;;;;;6.72;3.90;;;;;;;;;;5053415;28;20205;-70
2023/03/05 09:32:08;;;;;;;5.88;3.35;;;;;;;;;;5052835;28;20199;-70
2023/03/05 09:34:35;;;;;;;7.45;5.32;;;;;;;;;;5034604;28;20703;-69
2023/03/05 09:37:03;;;;;;;6.90;4.18;;;;;;;;;;5042839;28;20575;-69
2023/03/05 09:39:30;;;;;;;14.85;5.90;;;;;;;;;;5047986;28;20221;-70
2023/03/05 09:42:09;;;;;;;10.38;4.50;;;;;;;;;;5049543;28;20217;-71
2023/03/05 09:44:41;;;;;;;8.27;4.95;;;;;;;;;;5050221;28;20289;-70
2023/03/05 09:47:17;;;;;;;8.77;5.13;;;;;;;;;;5048864;28;20624;-70
2023/03/05 09:49:49;;;;;;;6.95;4.90;;;;;;;;;;5048974;28;20198;-70
2023/03/05 09:52:18;;;;;;;5.72;5.13;;;;;;;;;;5049646;28;20202;-70
2023/03/05 09:54:48;;;;;;;8.20;4.97;;;;;;;;;;5044049;28;20210;-70
2023/03/05 09:57:17;;;;;;;6.90;5.07;;;;;;;;;;5046723;28;20195;-70
2023/03/05 09:59:46;;;;;;;6.50;4.60;;;;;;;;;;5049597;28;20203;-70
2023/03/05 10:02:18;;;;;;;7.50;4.00;;;;;;;;;;5029710;28;20257;-70
2023/03/05 10:04:48;;;;;;;8.02;3.88;;;;;;;;;;5049589;28;20578;-70
2023/03/05 10:07:18;;;;;;;7.25;3.90;;;;;;;;;;5046915;28;20256;-71
2023/03/05 10:09:46;;;;;;;9.35;4.38;;;;;;;;;;5044583;28;20214;-71
2023/03/05 10:12:17;;;;;;;8.38;4.25;;;;;;;;;;5047544;28;20194;-70
2023/03/05 10:14:44;;;;;;;7.40;4.25;;;;;;;;;;5049798;28;20297;-71
2023/03/05 10:17:26;;;;;;;9.50;4.82;;;;;;;;;;5046021;28;20198;-70
2023/03/05 10:20:13;;;;;;;8.85;4.50;;;;;;;;;;5029588;28;20203;-70
2023/03/05 10:22:43;;;;;;;13.45;4.28;;;;;;;;;;5046414;28;20238;-71
2023/03/05 10:25:19;;;;;;;6.82;3.90;;;;;;;;;;5036585;28;20207;-70
2023/03/05 10:27:48;;;;;;;7.25;4.93;;;;;;;;;;5041673;28;20210;-73
2023/03/05 10:30:22;;;;;;;7.13;4.70;;;;;;;;;;5052083;28;20202;-69
2023/03/05 10:32:53;;;;;;;6.32;4.30;;;;;;;;;;5048112;28;20221;-70
2023/03/05 10:35:32;;;;;;;8.05;4.82;;;;;;;;;;5043512;28;20203;-69
2023/03/05 10:38:18;;;;;;;8.38;4.90;;;;;;;;;;5044030;28;20221;-70
2023/03/05 10:40:46;;;;;;;9.07;4.75;;;;;;;;;;5045421;28;20205;-70
2023/03/05 10:43:18;;;;;;;7.60;5.50;;;;;;;;;;5048975;28;20246;-69
2023/03/05 10:45:47;;;;;;;7.82;4.90;;;;;;;;;;5052171;28;20564;-70
2023/03/05 10:48:17;;;;;;;9.85;5.30;;;;;;;;;;5049635;28;20209;-70
2023/03/05 10:50:48;;;;;;;6.95;5.60;;;;;;;;;;5042509;28;20194;-70
2023/03/05 10:53:17;;;;;;;9.88;6.20;;;;;;;;;;5050445;28;20207;-70
2023/03/05 10:55:44;;;;;;;9.48;7.15;;;;;;;;;;5049167;28;20195;-70
2023/03/05 10:58:13;;;;;;;9.38;6.60;;;;;;;;;;5047965;28;20200;-70
2023/03/05 11:00:40;;;;;;;9.68;6.45;;;;;;;;;;5044141;28;20699;-70
2023/03/05 11:03:08;;;;;;;11.77;6.95;;;;;;;;;;5032905;28;20349;-69
2023/03/05 11:05:47;;;;;;;9.38;6.78;;;;;;;;;;5048462;28;20194;-70
2023/03/05 11:08:24;;;;;;;11.35;7.72;;;;;;;;;;5049324;28;20198;-70
2023/03/05 11:11:02;;;;;;;11.90;7.35;;;;;;;;;;5050829;28;20199;-70
2023/03/05 11:13:31;;;;;;;10.70;7.05;;;;;;;;;;5048621;28;20272;-70
2023/03/05 11:16:02;;;;;;;9.52;6.25;;;;;;;;;;5047834;28;20596;-69
2023/03/05 11:18:33;;;;;;;8.90;6.15;;;;;;;;;;5050578;28;20599;-69
2023/03/05 11:21:10;;;;;;;9.90;5.68;;;;;;;;;;5043199;28;20210;-69
2023/03/05 11:23:37;;;;;;;9.27;5.80;;;;;;;;;;5042445;28;20210;-69
2023/03/05 11:26:07;;;;;;;9.02;5.85;;;;;;;;;;5049585;28;20687;-70
2023/03/05 11:28:35;;;;;;;8.20;6.20;;;;;;;;;;5046924;28;20682;-70
2023/03/05 11:31:04;;;;;;;8.18;6.35;;;;;;;;;;5048495;28;20190;-69
2023/03/05 11:33:31;;;;;;;12.90;6.65;;;;;;;;;;5064062;22;20230;-69
2023/03/05 11:36:14;;;;;;;12.25;7.30;;;;;;;;;;5045216;28;20198;-69
2023/03/05 11:38:47;;;;;;;10.27;6.72;;;;;;;;;;5045187;28;20206;-69
2023/03/05 11:41:15;;;;;;;14.30;6.13;;;;;;;;;;5046837;28;20199;-71
2023/03/05 11:43:43;;;;;;;9.25;6.47;;;;;;;;;;5044897;28;20462;-71
2023/03/05 11:46:12;;;;;;;7.60;5.93;;;;;;;;;;5046618;28;20199;-70
2023/03/05 11:48:41;;;;;;;6.50;5.50;;;;;;;;;;5050224;28;20198;-70
2023/03/05 11:51:14;;;;;;;8.77;6.45;;;;;;;;;;5043425;28;20622;-71
2023/03/05 11:53:43;;;;;;;12.07;6.40;;;;;;;;;;5041808;28;20228;-70
2023/03/05 11:56:15;;;;;;;7.97;6.88;;;;;;;;;;5050967;28;20194;-69
2023/03/05 11:58:45;;;;;;;7.20;6.00;;;;;;;;;;5049690;28;20214;-69
2023/03/05 12:01:15;;;;;;;10.50;6.75;;;;;;;;;;5048811;28;20226;-70
2023/03/05 12:03:43;;;;;;;14.52;6.68;;;;;;;;;;5046135;28;20227;-69
2023/03/05 12:06:14;;;;;;;9.32;6.85;;;;;;;;;;5035242;28;20305;-69
2023/03/05 12:08:45;;;;;;;8.15;6.72;;;;;;;;;;5045306;28;20583;-70
2023/03/05 12:11:16;;;;;;;9.63;6.90;;;;;;;;;;5051981;28;20273;-69
2023/03/05 12:13:46;;;;;;;9.65;6.75;;;;;;;;;;5053345;28;20229;-70
2023/03/05 12:16:18;;;;;;;13.90;7.70;;;;;;;;;;5049437;28;20798;-70
2023/03/05 12:18:50;;;;;;;9.48;7.78;;;;;;;;;;5047312;28;20230;-70
2023/03/05 12:21:22;;;;;;;11.40;7.75;;;;;;;;;;5044759;28;20222;-70
2023/03/05 12:23:52;;;;;;;8.15;7.20;;;;;;;;;;5053703;28;20226;-70
2023/03/05 12:26:19;;;;;;;14.25;8.45;;;;;;;;;;5050894;28;20739;-70
2023/03/05 12:28:55;;;;;;;10.00;8.00;;;;;;;;;;5051745;28;20209;-70
2023/03/05 12:31:36;;;;;;;21.90;9.73;;;;;;;;;;5048996;28;20202;-69
2023/03/05 12:34:18;;;;;;;12.27;8.70;;;;;;;;;;5050628;28;20229;-70
2023/03/05 12:36:45;;;;;;;11.80;7.88;;;;;;;;;;5047946;28;20198;-70
2023/03/05 12:39:30;;;;;;;15.80;7.85;;;;;;;;;;5042285;28;20199;-70
2023/03/05 12:41:58;;;;;;;14.27;8.50;;;;;;;;;;5026836;28;20230;-70
2023/03/05 12:44:25;;;;;;;12.40;7.45;;;;;;;;;;5048834;28;20222;-69
2023/03/05 12:47:18;;;;;;;7.72;5.60;;;;;;;;;;5051883;28;20672;-69
2023/03/05 12:49:45;;;;;;;7.88;6.13;;;;;;;;;;5030060;28;20237;-69
2023/03/05 12:52:15;;;;;;;8.13;5.70;;;;;;;;;;5043393;28;20202;-70
2023/03/05 12:54:42;;;;;;;7.93;6.13;;;;;;;;;;5054059;28;20226;-69
2023/03/05 12:57:18;;;;;;;7.47;6.15;;;;;;;;;;5052624;28;20679;-70
2023/03/05 12:59:48;;;;;;;9.63;6.10;;;;;;;;;;5050206;28;20209;-70
2023/03/05 13:02:21;;;;;;;16.25;6.75;;;;;;;;;;5052994;28;20218;-71
2023/03/05 13:04:51;;;;;;;8.75;6.35;;;;;;;;;;5050368;28;20693;-70
2023/03/05 13:07:18;;;;;;;10.40;6.22;;;;;;;;;;5051544;28;20560;-70
2023/03/05 13:09:53;;;;;;;8.82;5.85;;;;;;;;;;5050713;28;20203;-70
2023/03/05 13:12:21;;;;;;;6.97;5.65;;;;;;;;;;5044551;28;20240;-71
2023/03/05 13:14:49;;;;;;;7.70;5.10;;;;;;;;;;5048098;28;20207;-70
2023/03/05 13:17:30;;;;;;;8.52;5.95;;;;;;;;;;5052202;28;20597;-71
2023/03/05 13:19:57;;;;;;;10.95;5.72;;;;;;;;;;5048835;28;20320;-70
2023/03/05 13:22:25;;;;;;;6.38;5.35;;;;;;;;;;5052033;28;20684;-70
2023/03/05 13:25:04;;;;;;;7.55;6.25;;;;;;;;;;5046452;28;20202;-70
2023/03/05 13:27:33;;;;;;;9.57;7.57;;;;;;;;;;5046507;28;20576;-69
2023/03/05 13:30:00;;;;;;;7.75;5.85;;;;;;;;;;5040932;28;20673;-70
2023/03/05 13:32:29;;;;;;;7.65;6.57;;;;;;;;;;5050959;28;20190;-70
2023/03/05 13:34:57;;;;;;;8.23;6.55;;;;;;;;;;5050578;28;20203;-70
2023/03/05 13:37:25;;;;;;;7.65;6.22;;;;;;;;;;5048372;28;20285;-70
2023/03/05 13:39:54;;;;;;;9.13;6.63;;;;;;;;;;5046868;28;20262;-70
2023/03/05 13:42:24;;;;;;;9.07;7.10;;;;;;;;;;5051643;28;20221;-73
2023/03/05 13:44:56;;;;;;;10.90;6.28;;;;;;;;;;5052063;28;20233;-70
2023/03/05 13:47:24;;;;;;;11.68;6.80;;;;;;;;;;5045917;28;20191;-69
2023/03/05 13:49:58;;;;;;;11.82;7.57;;;;;;;;;;5051691;28;20209;-69
2023/03/05 13:52:26;;;;;;;9.23;6.30;;;;;;;;;;5043655;28;20202;-70
2023/03/05 13:54:53;;;;;;;10.88;6.68;;;;;;;;;;5048481;28;20572;-69
2023/03/05 13:57:34;;;;;;;12.73;7.13;;;;;;;;;;5047940;28;20198;-70
2023/03/05 14:00:03;;;;;;;9.20;6.45;;;;;;;;;;5047472;28;20218;-70
2023/03/05 14:02:30;;;;;;;8.02;6.80;;;;;;;;;;5050988;28;20264;-70
2023/03/05 14:04:58;;;;;;;11.10;6.57;;;;;;;;;;5047786;28;20257;-70
2023/03/05 14:07:29;;;;;;;8.70;6.97;;;;;;;;;;5043371;28;20206;-70
2023/03/05 14:09:57;;;;;;;11.05;6.40;;;;;;;;;;5050554;28;20202;-70
2023/03/05 14:12:27;;;;;;;13.88;9.13;;;;;;;;;;5047272;28;20274;-70
2023/03/05 14:14:54;;;;;;;14.52;9.13;;;;;;;;;;5049537;28;20202;-70
2023/03/05 14:17:23;;;;;;;13.32;7.90;;;;;;;;;;5042824;28;20679;-70
2023/03/05 14:19:51;;;;;;;11.43;7.75;;;;;;;;;;5050810;28;20191;-69
2023/03/05 14:22:32;;;;;;;9.57;7.13;;;;;;;;;;5049485;28;20225;-69
2023/03/05 14:25:00;;;;;;;16.70;8.95;;;;;;;;;;5044748;28;20217;-69
2023/03/05 14:27:27;;;;;;;10.70;7.50;;;;;;;;;;5052310;28;20199;-70
2023/03/05 14:29:54;;;;;;;10.52;7.50;;;;;;;;;;5050305;28;20202;-70
2023/03/05 14:32:26;;;;;;;10.98;8.52;;;;;;;;;;5051945;28;20202;-70
2023/03/05 14:34:55;;;;;;;13.45;7.43;;;;;;;;;;5048467;28;20222;-70
2023/03/05 14:37:24;;;;;;;9.35;7.05;;;;;;;;;;5040733;28;20584;-70
2023/03/05 14:39:52;;;;;;;11.82;7.45;;;;;;;;;;5045695;28;20213;-70
2023/03/05 14:42:26;;;;;;;12.63;7.75;;;;;;;;;;5049060;28;20202;-70
2023/03/05 14:44:55;;;;;;;11.35;7.93;;;;;;;;;;5050708;28;20208;-70
2023/03/05 14:47:24;;;;;;;9.52;7.50;;;;;;;;;;5045023;28;20639;-70
2023/03/05 14:49:51;;;;;;;12.73;7.50;;;;;;;;;;5049556;28;20205;-70